aviador You're here:

WAAA Decoded Metar

UJUNG PANDANG in INDONESIA
Report Time2017-12-16 03:30:00
UTC Time2017-12-16 03:40:44
Flight Rules vfr VFR
WindVRB at 02 kt
Visibility9000 m
Phenomena:Recent Rain
Clouds:Few CB 018 Hf
Scattered 019 Hf
Expected CloudBase > 800 ft AGL from Temp-Dew spread
CeilingNone
Temp28°C (ISA +13)
Dew Point26°C (89% RH)
Heat Index33.6°C
QNH1011 hPa
Density Alt2,060 ft
Elevation46 ft
Report Wrong Elevation
Raw Report
WAAA 160330Z VRB02KT 9000 FEW018CB SCT019 28/26 Q1011 RERA NOSI
G=

Extra information for WAAA:More info

Metar Taf Metar & Taf Last 4 Metars F.Rules Stats Wind Profile Meteogram Temp Stats Airport Information Weather charts Add Link Nearby VenuesMetar ALERT Operation Metar Decoded Social comments